Leesburg, IN (46538)

8:57 AM EST on January 19, 2017 (GMT -0500)
ME1407 | | Change Station

Elev 875 ft 41.33 °N, 85.77 °W | Updated 46 minutes ago

Overcast
Overcast
33.0 °F
Feels Like 33 °F
N
2.0
Wind Variable Wind from SW
Gusts 3.0 mph

Today
High -- | Low -- °F
--% Chance of Precip.
Yesterday
High -- | Low -- °F
Precip. -- in
Pressure 30.05 in
Visibility 1.5 miles
Clouds Overcast 400 ft
Windchill 33 °F
Dew Point 32 °F
Humidity 96%
Rainfall 0.00 in
Snow Depth Not available.
8:04 AM 5:44 PM
Waning Gibbous, 53% visible
METAR KASW 191335Z AUTO 00000KT 1 1/2SM HZ OVC004 01/M01 A3005 RMK AO2
Pressure 30.05 in
Visibility 1.5 miles
Clouds Overcast 400 ft
Windchill 33 °F
Dew Point 32 °F
Humidity 96%
Rainfall 0.00 in
Snow Depth Not available.
8:04 AM 5:44 PM
Waning Gibbous, 53% visible
METAR KASW 191335Z AUTO 00000KT 1 1/2SM HZ OVC004 01/M01 A3005 RMK AO2

Get Your Daily Forecast Email!

Thanks for signing up!

Be on the lookout for a verification email in your inbox.

You'll start receiving the daily forecast at 8 AM.

×

10-Day Weather Forecast

Almanac

Astronomy

Jan. 19, 2017 Rise Set
Actual Time
Civil Twilight
Nautical Twilight
Astronomical Twilight
Moon
Length of Visible Light
Length of Day
Tomorrow will be .
, % of the Moon is Illuminated

Today's Extremes

State Highs State Lows

Community

WunderPhotos

Upload Photos

1,962,540 photos uploaded!

WunderBlog® & News

Nearby

Air Quality

  Air Quality AQ Index Pollutant
Not available.

Snow Depth

Station Depth Elevation

Earthquake Activity

City Distance Mag. Time & Date
Minimum magnitude displayed is 2.5.

Coastal Water Temperatures

Place Temperature

Stations

Nearby Weather Stations

Station Location Temp. Windchill Dew Point Humidity Wind Precip. Elev Updated Type
                   

Watches & Warnings

There are currently no watches in effect.